sensor_id;sensor_type;location;lat;lon;timestamp;pressure;altitude;pressure_sealevel;temperature;humidity
37078;BME280;22989;55.998;37.212;2023-02-28T00:00:11;-11298.94;;;-145.39;60.50
37078;BME280;22989;55.998;37.212;2023-02-28T00:02:38;-11298.94;;;-145.39;60.25
37078;BME280;22989;55.998;37.212;2023-02-28T00:05:04;-11298.94;;;-145.39;60.43
37078;BME280;22989;55.998;37.212;2023-02-28T00:07:31;-11298.94;;;-145.39;60.20
37078;BME280;22989;55.998;37.212;2023-02-28T00:09:57;-11298.94;;;-145.39;60.26
37078;BME280;22989;55.998;37.212;2023-02-28T00:12:23;-11298.94;;;-145.39;60.20
37078;BME280;22989;55.998;37.212;2023-02-28T00:14:49;-11298.94;;;-145.39;60.21
37078;BME280;22989;55.998;37.212;2023-02-28T00:17:14;-11298.94;;;-145.39;60.17
37078;BME280;22989;55.998;37.212;2023-02-28T00:19:41;-11298.94;;;-145.39;60.29
37078;BME280;22989;55.998;37.212;2023-02-28T00:22:07;-11298.94;;;-145.39;60.15
37078;BME280;22989;55.998;37.212;2023-02-28T00:24:32;-11298.94;;;-145.39;60.45
37078;BME280;22989;55.998;37.212;2023-02-28T00:26:58;-11298.94;;;-145.39;60.42
37078;BME280;22989;55.998;37.212;2023-02-28T00:29:23;-11298.94;;;-145.39;60.44
37078;BME280;22989;55.998;37.212;2023-02-28T00:31:49;-11298.94;;;-145.39;60.28
37078;BME280;22989;55.998;37.212;2023-02-28T00:34:14;-11298.94;;;-145.39;60.11
37078;BME280;22989;55.998;37.212;2023-02-28T00:36:40;-11298.94;;;-145.39;60.35
37078;BME280;22989;55.998;37.212;2023-02-28T00:39:10;-11298.94;;;-145.39;60.60
37078;BME280;22989;55.998;37.212;2023-02-28T00:41:36;-11298.94;;;-145.39;60.52
37078;BME280;22989;55.998;37.212;2023-02-28T00:44:02;-11298.94;;;-145.39;60.56
37078;BME280;22989;55.998;37.212;2023-02-28T00:46:28;-11298.94;;;-145.39;60.69
37078;BME280;22989;55.998;37.212;2023-02-28T00:48:53;-11298.94;;;-145.39;60.32
37078;BME280;22989;55.998;37.212;2023-02-28T00:51:19;-11298.94;;;-145.39;60.30
37078;BME280;22989;55.998;37.212;2023-02-28T00:53:44;-11298.94;;;-145.39;60.37
37078;BME280;22989;55.998;37.212;2023-02-28T00:56:10;-11298.94;;;-145.39;60.56
37078;BME280;22989;55.998;37.212;2023-02-28T00:58:36;-11298.94;;;-145.39;60.49
37078;BME280;22989;55.998;37.212;2023-02-28T01:01:01;-11298.94;;;-145.39;60.20
37078;BME280;22989;55.998;37.212;2023-02-28T01:03:27;-11298.94;;;-145.39;60.32
37078;BME280;22989;55.998;37.212;2023-02-28T01:05:53;-11298.94;;;-145.39;60.52
37078;BME280;22989;55.998;37.212;2023-02-28T01:08:18;-11298.94;;;-145.39;60.73
37078;BME280;22989;55.998;37.212;2023-02-28T01:10:44;-11298.94;;;-145.39;60.56
37078;BME280;22989;55.998;37.212;2023-02-28T01:13:10;-11298.94;;;-145.39;60.60
37078;BME280;22989;55.998;37.212;2023-02-28T01:15:36;-11298.94;;;-145.39;60.31
37078;BME280;22989;55.998;37.212;2023-02-28T01:18:04;-11298.94;;;-145.39;60.47
37078;BME280;22989;55.998;37.212;2023-02-28T01:20:30;-11298.94;;;-145.39;60.54
37078;BME280;22989;55.998;37.212;2023-02-28T01:22:55;-11298.94;;;-145.39;60.54
37078;BME280;22989;55.998;37.212;2023-02-28T01:25:21;-11298.94;;;-145.39;60.49
37078;BME280;22989;55.998;37.212;2023-02-28T01:27:47;-11298.94;;;-145.39;60.61
37078;BME280;22989;55.998;37.212;2023-02-28T01:30:12;-11298.94;;;-145.39;60.49
37078;BME280;22989;55.998;37.212;2023-02-28T01:32:38;-11298.94;;;-145.39;60.35
37078;BME280;22989;55.998;37.212;2023-02-28T01:35:04;-11298.94;;;-145.39;60.57
37078;BME280;22989;55.998;37.212;2023-02-28T01:37:29;-11298.94;;;-145.39;60.69
37078;BME280;22989;55.998;37.212;2023-02-28T01:39:55;-11298.94;;;-145.39;60.47
37078;BME280;22989;55.998;37.212;2023-02-28T01:42:21;-11298.94;;;-145.39;60.54
37078;BME280;22989;55.998;37.212;2023-02-28T01:45:01;-11298.94;;;-145.39;60.67
37078;BME280;22989;55.998;37.212;2023-02-28T01:47:39;-11298.94;;;-145.39;60.85
37078;BME280;22989;55.998;37.212;2023-02-28T01:50:10;-11298.94;;;-145.39;60.59
37078;BME280;22989;55.998;37.212;2023-02-28T01:52:37;-11298.94;;;-145.39;60.87
37078;BME280;22989;55.998;37.212;2023-02-28T01:55:06;-11298.94;;;-145.39;60.66
37078;BME280;22989;55.998;37.212;2023-02-28T01:57:35;-11298.94;;;-145.39;60.90
37078;BME280;22989;55.998;37.212;2023-02-28T02:00:07;-11298.94;;;-145.39;60.66
37078;BME280;22989;55.998;37.212;2023-02-28T02:02:39;-11298.94;;;-145.39;60.87
37078;BME280;22989;55.998;37.212;2023-02-28T02:05:15;-11298.94;;;-145.39;60.86
37078;BME280;22989;55.998;37.212;2023-02-28T02:07:43;-11298.94;;;-145.39;60.69
37078;BME280;22989;55.998;37.212;2023-02-28T02:13:05;-11298.94;;;-145.39;60.72
37078;BME280;22989;55.998;37.212;2023-02-28T02:15:41;-11298.94;;;-145.39;60.71
37078;BME280;22989;55.998;37.212;2023-02-28T02:26:40;-11298.94;;;-145.39;60.88
37078;BME280;22989;55.998;37.212;2023-02-28T02:32:05;-11298.94;;;-145.39;60.91
37078;BME280;22989;55.998;37.212;2023-02-28T02:42:41;-11298.94;;;-145.39;61.15
37078;BME280;22989;55.998;37.212;2023-02-28T02:45:17;-11298.94;;;-145.39;61.04
37078;BME280;22989;55.998;37.212;2023-02-28T02:47:45;-11298.94;;;-145.39;61.14
37078;BME280;22989;55.998;37.212;2023-02-28T02:50:16;-11298.94;;;-145.39;60.90
37078;BME280;22989;55.998;37.212;2023-02-28T02:52:48;-11298.94;;;-145.39;60.99
37078;BME280;22989;55.998;37.212;2023-02-28T02:55:17;-11298.94;;;-145.39;60.92
37078;BME280;22989;55.998;37.212;2023-02-28T02:57:48;-11298.94;;;-145.39;60.89
37078;BME280;22989;55.998;37.212;2023-02-28T03:00:17;-11298.94;;;-145.39;60.81
37078;BME280;22989;55.998;37.212;2023-02-28T03:02:47;-11298.94;;;-145.39;61.10
37078;BME280;22989;55.998;37.212;2023-02-28T03:05:26;-11298.94;;;-145.39;60.91
37078;BME280;22989;55.998;37.212;2023-02-28T03:07:54;-11298.94;;;-145.39;60.97
37078;BME280;22989;55.998;37.212;2023-02-28T03:16:02;-11298.94;;;-145.39;60.91
37078;BME280;22989;55.998;37.212;2023-02-28T03:18:43;-11298.94;;;-145.39;60.69
37078;BME280;22989;55.998;37.212;2023-02-28T03:24:05;-11298.94;;;-145.39;60.42
37078;BME280;22989;55.998;37.212;2023-02-28T03:26:36;-11298.94;;;-145.39;60.54
37078;BME280;22989;55.998;37.212;2023-02-28T03:32:18;-11298.94;;;-145.39;60.54
37078;BME280;22989;55.998;37.212;2023-02-28T03:35:26;-11298.94;;;-145.39;60.32
37078;BME280;22989;55.998;37.212;2023-02-28T03:38:00;-11298.94;;;-145.39;60.42
37078;BME280;22989;55.998;37.212;2023-02-28T03:40:32;-11298.94;;;-145.39;60.30
37078;BME280;22989;55.998;37.212;2023-02-28T03:43:07;-11298.94;;;-145.39;60.26
37078;BME280;22989;55.998;37.212;2023-02-28T03:45:36;-11298.94;;;-145.39;60.36
37078;BME280;22989;55.998;37.212;2023-02-28T03:48:15;-11298.94;;;-145.39;60.25
37078;BME280;22989;55.998;37.212;2023-02-28T03:50:44;-11298.94;;;-145.39;60.22
37078;BME280;22989;55.998;37.212;2023-02-28T03:53:33;-11298.94;;;-145.39;60.33
37078;BME280;22989;55.998;37.212;2023-02-28T03:56:06;-11298.94;;;-145.39;60.07
37078;BME280;22989;55.998;37.212;2023-02-28T04:01:18;-11298.94;;;-145.39;59.97
37078;BME280;22989;55.998;37.212;2023-02-28T04:03:45;-11298.94;;;-145.39;59.99
37078;BME280;22989;55.998;37.212;2023-02-28T04:06:20;-11298.94;;;-145.39;60.25
37078;BME280;22989;55.998;37.212;2023-02-28T04:08:46;-11298.94;;;-145.39;60.06
37078;BME280;22989;55.998;37.212;2023-02-28T04:13:56;-11298.94;;;-145.39;60.02
37078;BME280;22989;55.998;37.212;2023-02-28T04:16:21;-11298.94;;;-145.39;59.86
37078;BME280;22989;55.998;37.212;2023-02-28T04:18:47;-11298.94;;;-145.39;59.74
37078;BME280;22989;55.998;37.212;2023-02-28T04:21:13;-11298.94;;;-145.39;59.79
37078;BME280;22989;55.998;37.212;2023-02-28T04:23:38;-11298.94;;;-145.39;59.93
37078;BME280;22989;55.998;37.212;2023-02-28T04:26:04;-11298.94;;;-145.39;59.78
37078;BME280;22989;55.998;37.212;2023-02-28T04:28:32;-11298.94;;;-145.39;59.72
37078;BME280;22989;55.998;37.212;2023-02-28T04:30:59;-11298.94;;;-145.39;59.67
37078;BME280;22989;55.998;37.212;2023-02-28T04:33:25;-11298.94;;;-145.39;59.57
37078;BME280;22989;55.998;37.212;2023-02-28T04:36:02;-11298.94;;;-145.39;59.61
37078;BME280;22989;55.998;37.212;2023-02-28T04:38:29;-11298.94;;;-145.39;59.40
37078;BME280;22989;55.998;37.212;2023-02-28T04:40:58;-11298.94;;;-145.39;59.15
37078;BME280;22989;55.998;37.212;2023-02-28T04:43:27;-11298.94;;;-145.39;58.87
37078;BME280;22989;55.998;37.212;2023-02-28T04:45:53;-11298.94;;;-145.39;58.89
37078;BME280;22989;55.998;37.212;2023-02-28T04:48:23;-11298.94;;;-145.39;58.63
37078;BME280;22989;55.998;37.212;2023-02-28T04:50:51;-11298.94;;;-145.39;58.45
37078;BME280;22989;55.998;37.212;2023-02-28T04:53:17;-11298.94;;;-145.39;58.49
37078;BME280;22989;55.998;37.212;2023-02-28T04:55:43;-11298.94;;;-145.39;58.14
37078;BME280;22989;55.998;37.212;2023-02-28T04:58:09;-11298.94;;;-145.39;58.26
37078;BME280;22989;55.998;37.212;2023-02-28T05:00:35;-11298.94;;;-145.39;57.44
37078;BME280;22989;55.998;37.212;2023-02-28T05:03:01;-11298.94;;;-145.39;57.36
37078;BME280;22989;55.998;37.212;2023-02-28T05:05:26;-11298.94;;;-145.39;57.14
37078;BME280;22989;55.998;37.212;2023-02-28T05:07:52;-11298.94;;;-145.39;57.00
37078;BME280;22989;55.998;37.212;2023-02-28T05:10:19;-11298.94;;;-145.39;56.68
37078;BME280;22989;55.998;37.212;2023-02-28T05:12:44;-11298.94;;;-145.39;56.80
37078;BME280;22989;55.998;37.212;2023-02-28T05:15:14;-11298.94;;;-145.39;56.58
37078;BME280;22989;55.998;37.212;2023-02-28T05:17:40;-11298.94;;;-145.39;56.32
37078;BME280;22989;55.998;37.212;2023-02-28T05:20:06;-11298.94;;;-145.39;56.58
37078;BME280;22989;55.998;37.212;2023-02-28T05:22:32;-11298.94;;;-145.39;56.08
37078;BME280;22989;55.998;37.212;2023-02-28T05:24:58;-11298.94;;;-145.39;55.91
37078;BME280;22989;55.998;37.212;2023-02-28T05:27:23;-11298.94;;;-145.39;55.79
37078;BME280;22989;55.998;37.212;2023-02-28T05:29:50;-11298.94;;;-145.39;55.71
37078;BME280;22989;55.998;37.212;2023-02-28T05:32:15;-11298.94;;;-145.39;55.03
37078;BME280;22989;55.998;37.212;2023-02-28T05:34:41;-11298.94;;;-145.39;54.77
37078;BME280;22989;55.998;37.212;2023-02-28T05:37:14;-11298.94;;;-145.39;54.89
37078;BME280;22989;55.998;37.212;2023-02-28T05:39:41;-11298.94;;;-145.39;54.54
37078;BME280;22989;55.998;37.212;2023-02-28T05:42:07;-11298.94;;;-145.39;53.84
37078;BME280;22989;55.998;37.212;2023-02-28T05:44:33;-11298.94;;;-145.39;53.78
37078;BME280;22989;55.998;37.212;2023-02-28T05:46:59;-11298.94;;;-145.39;53.29
37078;BME280;22989;55.998;37.212;2023-02-28T05:49:24;-11298.94;;;-145.39;52.88
37078;BME280;22989;55.998;37.212;2023-02-28T05:51:50;-11298.94;;;-145.39;52.83
37078;BME280;22989;55.998;37.212;2023-02-28T05:54:15;-11298.94;;;-145.39;53.07
37078;BME280;22989;55.998;37.212;2023-02-28T05:56:41;-11298.94;;;-145.39;52.51
37078;BME280;22989;55.998;37.212;2023-02-28T05:59:10;-11298.94;;;-145.39;51.99
37078;BME280;22989;55.998;37.212;2023-02-28T06:01:38;-11298.94;;;-145.39;51.54
37078;BME280;22989;55.998;37.212;2023-02-28T06:04:09;-11298.94;;;-145.39;50.97
37078;BME280;22989;55.998;37.212;2023-02-28T06:06:35;-11298.94;;;-145.39;50.60
37078;BME280;22989;55.998;37.212;2023-02-28T06:09:04;-11298.94;;;-145.39;50.74
37078;BME280;22989;55.998;37.212;2023-02-28T06:11:30;-11298.94;;;-145.39;50.66
37078;BME280;22989;55.998;37.212;2023-02-28T06:13:59;-11298.94;;;-145.39;50.58
37078;BME280;22989;55.998;37.212;2023-02-28T06:16:27;-11298.94;;;-145.39;50.53
37078;BME280;22989;55.998;37.212;2023-02-28T06:18:52;-11298.94;;;-145.39;50.33
37078;BME280;22989;55.998;37.212;2023-02-28T06:21:20;-11298.94;;;-145.39;50.31
37078;BME280;22989;55.998;37.212;2023-02-28T06:23:46;-11298.94;;;-145.39;50.18
37078;BME280;22989;55.998;37.212;2023-02-28T06:26:12;-11298.94;;;-145.39;50.32
37078;BME280;22989;55.998;37.212;2023-02-28T06:28:37;-11298.94;;;-145.39;50.36
37078;BME280;22989;55.998;37.212;2023-02-28T06:31:16;-11298.94;;;-145.39;50.27
37078;BME280;22989;55.998;37.212;2023-02-28T06:33:42;-11298.94;;;-145.39;49.95
37078;BME280;22989;55.998;37.212;2023-02-28T06:36:10;-11298.94;;;-145.39;49.96
37078;BME280;22989;55.998;37.212;2023-02-28T06:38:37;-11298.94;;;-145.39;49.78
37078;BME280;22989;55.998;37.212;2023-02-28T06:41:03;-11298.94;;;-145.39;49.48
37078;BME280;22989;55.998;37.212;2023-02-28T06:43:32;-11298.94;;;-145.39;49.46
37078;BME280;22989;55.998;37.212;2023-02-28T06:45:59;-11298.94;;;-145.39;49.38
37078;BME280;22989;55.998;37.212;2023-02-28T06:48:27;-11298.94;;;-145.39;49.29
37078;BME280;22989;55.998;37.212;2023-02-28T06:51:04;-11298.94;;;-145.39;48.96
37078;BME280;22989;55.998;37.212;2023-02-28T06:53:30;-11298.94;;;-145.39;48.89
37078;BME280;22989;55.998;37.212;2023-02-28T06:55:56;-11298.94;;;-145.39;48.84
37078;BME280;22989;55.998;37.212;2023-02-28T06:58:21;-11298.94;;;-145.39;48.64
37078;BME280;22989;55.998;37.212;2023-02-28T07:00:51;-11298.94;;;-145.39;48.86
37078;BME280;22989;55.998;37.212;2023-02-28T07:03:17;-11298.94;;;-145.39;48.79
37078;BME280;22989;55.998;37.212;2023-02-28T07:05:43;-11298.94;;;-145.39;48.77
37078;BME280;22989;55.998;37.212;2023-02-28T07:08:09;-11298.94;;;-145.39;49.09
37078;BME280;22989;55.998;37.212;2023-02-28T07:10:38;-11298.94;;;-145.39;49.04
37078;BME280;22989;55.998;37.212;2023-02-28T07:13:05;-11298.94;;;-145.39;48.67
37078;BME280;22989;55.998;37.212;2023-02-28T07:15:32;-11298.94;;;-145.39;48.65
37078;BME280;22989;55.998;37.212;2023-02-28T07:17:57;-11298.94;;;-145.39;48.40
37078;BME280;22989;55.998;37.212;2023-02-28T07:20:23;-11298.94;;;-145.39;48.16
37078;BME280;22989;55.998;37.212;2023-02-28T07:22:50;-11298.94;;;-145.39;47.97
37078;BME280;22989;55.998;37.212;2023-02-28T07:25:27;-11298.94;;;-145.39;47.84
37078;BME280;22989;55.998;37.212;2023-02-28T07:27:54;-11298.94;;;-145.39;47.96
37078;BME280;22989;55.998;37.212;2023-02-28T07:30:20;-11298.94;;;-145.39;47.79
37078;BME280;22989;55.998;37.212;2023-02-28T07:32:45;-11298.94;;;-145.39;48.03
37078;BME280;22989;55.998;37.212;2023-02-28T07:35:12;-11298.94;;;-145.39;48.08
37078;BME280;22989;55.998;37.212;2023-02-28T07:37:37;-11298.94;;;-145.39;48.15
37078;BME280;22989;55.998;37.212;2023-02-28T07:40:05;-11298.94;;;-145.39;48.08
37078;BME280;22989;55.998;37.212;2023-02-28T07:42:32;-11298.94;;;-145.39;48.00
37078;BME280;22989;55.998;37.212;2023-02-28T07:44:58;-11298.94;;;-145.39;48.08
37078;BME280;22989;55.998;37.212;2023-02-28T07:47:24;-11298.94;;;-145.39;48.05
37078;BME280;22989;55.998;37.212;2023-02-28T07:49:50;-11298.94;;;-145.39;48.16
37078;BME280;22989;55.998;37.212;2023-02-28T07:52:15;-11298.94;;;-145.39;48.09
37078;BME280;22989;55.998;37.212;2023-02-28T07:54:41;-11298.94;;;-145.39;48.18
37078;BME280;22989;55.998;37.212;2023-02-28T07:57:07;-11298.94;;;-145.39;48.49
37078;BME280;22989;55.998;37.212;2023-02-28T07:59:32;-11298.94;;;-145.39;48.50
37078;BME280;22989;55.998;37.212;2023-02-28T08:01:58;-11298.94;;;-145.39;48.50
37078;BME280;22989;55.998;37.212;2023-02-28T08:04:24;-11298.94;;;-145.39;48.52
37078;BME280;22989;55.998;37.212;2023-02-28T08:06:50;-11298.94;;;-145.39;48.55
37078;BME280;22989;55.998;37.212;2023-02-28T08:09:18;-11298.94;;;-145.39;48.34
37078;BME280;22989;55.998;37.212;2023-02-28T08:11:44;-11298.94;;;-145.39;48.03
37078;BME280;22989;55.998;37.212;2023-02-28T08:14:10;-11298.94;;;-145.39;47.88
37078;BME280;22989;55.998;37.212;2023-02-28T08:16:35;-11298.94;;;-145.39;48.03
37078;BME280;22989;55.998;37.212;2023-02-28T08:19:01;-11298.94;;;-145.39;48.28
37078;BME280;22989;55.998;37.212;2023-02-28T08:21:26;-11298.94;;;-145.39;48.38
37078;BME280;22989;55.998;37.212;2023-02-28T08:23:52;-11298.94;;;-145.39;48.63
37078;BME280;22989;55.998;37.212;2023-02-28T08:26:18;-11298.94;;;-145.39;48.68
37078;BME280;22989;55.998;37.212;2023-02-28T08:28:45;-11298.94;;;-145.39;48.96
37078;BME280;22989;55.998;37.212;2023-02-28T08:31:12;-11298.94;;;-145.39;48.96
37078;BME280;22989;55.998;37.212;2023-02-28T08:33:39;-11298.94;;;-145.39;49.11
37078;BME280;22989;55.998;37.212;2023-02-28T08:36:06;-11298.94;;;-145.39;49.17
37078;BME280;22989;55.998;37.212;2023-02-28T08:38:31;-11298.94;;;-145.39;49.32
37078;BME280;22989;55.998;37.212;2023-02-28T08:40:59;-11298.94;;;-145.39;49.41
37078;BME280;22989;55.998;37.212;2023-02-28T08:43:25;-11298.94;;;-145.39;49.47
37078;BME280;22989;55.998;37.212;2023-02-28T08:45:52;-11298.94;;;-145.39;49.42
37078;BME280;22989;55.998;37.212;2023-02-28T08:48:18;-11298.94;;;-145.39;49.68
37078;BME280;22989;55.998;37.212;2023-02-28T08:50:43;-11298.94;;;-145.39;49.65
37078;BME280;22989;55.998;37.212;2023-02-28T08:53:09;-11298.94;;;-145.39;49.80
37078;BME280;22989;55.998;37.212;2023-02-28T08:55:35;-11298.94;;;-145.39;49.69
37078;BME280;22989;55.998;37.212;2023-02-28T08:58:01;-11298.94;;;-145.39;49.55
37078;BME280;22989;55.998;37.212;2023-02-28T09:00:26;-11298.94;;;-145.39;49.58
37078;BME280;22989;55.998;37.212;2023-02-28T09:02:52;-11298.94;;;-145.39;49.50
37078;BME280;22989;55.998;37.212;2023-02-28T09:05:18;-11298.94;;;-145.39;49.67
37078;BME280;22989;55.998;37.212;2023-02-28T09:07:43;-11298.94;;;-145.39;49.69
37078;BME280;22989;55.998;37.212;2023-02-28T09:10:09;-11298.94;;;-145.39;49.63
37078;BME280;22989;55.998;37.212;2023-02-28T09:12:35;-11298.94;;;-145.39;49.67
37078;BME280;22989;55.998;37.212;2023-02-28T09:15:02;-11298.94;;;-145.39;50.00
37078;BME280;22989;55.998;37.212;2023-02-28T09:17:27;-11298.94;;;-145.39;50.16
37078;BME280;22989;55.998;37.212;2023-02-28T09:19:53;-11298.94;;;-145.39;50.24
37078;BME280;22989;55.998;37.212;2023-02-28T09:22:18;-11298.94;;;-145.39;50.26
37078;BME280;22989;55.998;37.212;2023-02-28T09:24:44;-11298.94;;;-145.39;50.39
37078;BME280;22989;55.998;37.212;2023-02-28T09:27:10;-11298.94;;;-145.39;50.34
37078;BME280;22989;55.998;37.212;2023-02-28T09:29:35;-11298.94;;;-145.39;50.47
37078;BME280;22989;55.998;37.212;2023-02-28T09:32:02;-11298.94;;;-145.39;50.48
37078;BME280;22989;55.998;37.212;2023-02-28T09:34:28;-11298.94;;;-145.39;50.50
37078;BME280;22989;55.998;37.212;2023-02-28T09:36:56;-11298.94;;;-145.39;50.60
37078;BME280;22989;55.998;37.212;2023-02-28T09:39:22;-11298.94;;;-145.39;50.63
37078;BME280;22989;55.998;37.212;2023-02-28T09:41:52;-11298.94;;;-145.39;50.68
37078;BME280;22989;55.998;37.212;2023-02-28T09:44:26;-11298.94;;;-145.39;50.66
37078;BME280;22989;55.998;37.212;2023-02-28T09:46:58;-11298.94;;;-145.39;50.73
37078;BME280;22989;55.998;37.212;2023-02-28T09:49:40;-11298.94;;;-145.39;50.51
37078;BME280;22989;55.998;37.212;2023-02-28T09:52:12;-11298.94;;;-145.39;50.48
37078;BME280;22989;55.998;37.212;2023-02-28T09:54:39;-11298.94;;;-145.39;50.33
37078;BME280;22989;55.998;37.212;2023-02-28T09:57:18;-11298.94;;;-145.39;50.23
37078;BME280;22989;55.998;37.212;2023-02-28T09:59:48;-11298.94;;;-145.39;50.19
37078;BME280;22989;55.998;37.212;2023-02-28T10:04:47;-11298.94;;;-145.39;50.38
37078;BME280;22989;55.998;37.212;2023-02-28T10:07:35;-11298.94;;;-145.39;50.57
37078;BME280;22989;55.998;37.212;2023-02-28T10:10:13;-11298.94;;;-145.39;50.21
37078;BME280;22989;55.998;37.212;2023-02-28T10:12:43;-11298.94;;;-145.39;50.56
37078;BME280;22989;55.998;37.212;2023-02-28T10:15:14;-11298.94;;;-145.39;50.55
37078;BME280;22989;55.998;37.212;2023-02-28T10:17:43;-11298.94;;;-145.39;50.66
37078;BME280;22989;55.998;37.212;2023-02-28T10:20:13;-11298.94;;;-145.39;50.58
37078;BME280;22989;55.998;37.212;2023-02-28T10:22:59;-11298.94;;;-145.39;50.67
37078;BME280;22989;55.998;37.212;2023-02-28T10:25:34;-11298.94;;;-145.39;50.68
37078;BME280;22989;55.998;37.212;2023-02-28T10:28:13;-11298.94;;;-145.39;50.55
37078;BME280;22989;55.998;37.212;2023-02-28T10:30:42;-11298.94;;;-145.39;50.50
37078;BME280;22989;55.998;37.212;2023-02-28T10:33:17;-11298.94;;;-145.39;50.73
37078;BME280;22989;55.998;37.212;2023-02-28T10:35:44;-11298.94;;;-145.39;50.80
37078;BME280;22989;55.998;37.212;2023-02-28T10:38:16;-11298.94;;;-145.39;50.87
37078;BME280;22989;55.998;37.212;2023-02-28T10:40:42;-11298.94;;;-145.39;50.96
37078;BME280;22989;55.998;37.212;2023-02-28T10:45:53;-11298.94;;;-145.39;51.00
37078;BME280;22989;55.998;37.212;2023-02-28T10:50:51;-11298.94;;;-145.39;51.28
37078;BME280;22989;55.998;37.212;2023-02-28T11:03:56;-11298.94;;;-145.39;51.68
37078;BME280;22989;55.998;37.212;2023-02-28T11:06:28;-11298.94;;;-145.39;51.84
37078;BME280;22989;55.998;37.212;2023-02-28T11:08:59;-11298.94;;;-145.39;51.84
37078;BME280;22989;55.998;37.212;2023-02-28T11:11:28;-11298.94;;;-145.39;51.72
37078;BME280;22989;55.998;37.212;2023-02-28T11:13:56;-11298.94;;;-145.39;51.73
37078;BME280;22989;55.998;37.212;2023-02-28T11:16:33;-11298.94;;;-145.39;51.97
37078;BME280;22989;55.998;37.212;2023-02-28T11:19:00;-11298.94;;;-145.39;52.12
37078;BME280;22989;55.998;37.212;2023-02-28T11:21:29;-11298.94;;;-145.39;52.66
37078;BME280;22989;55.998;37.212;2023-02-28T11:24:23;-11298.94;;;-145.39;52.62
37078;BME280;22989;55.998;37.212;2023-02-28T11:26:50;-11298.94;;;-145.39;52.93
37078;BME280;22989;55.998;37.212;2023-02-28T11:34:45;-11298.94;;;-145.39;53.88
37078;BME280;22989;55.998;37.212;2023-02-28T11:37:15;-11298.94;;;-145.39;54.10
37078;BME280;22989;55.998;37.212;2023-02-28T11:39:42;-11298.94;;;-145.39;54.37
37078;BME280;22989;55.998;37.212;2023-02-28T11:45:09;-11298.94;;;-145.39;54.92
37078;BME280;22989;55.998;37.212;2023-02-28T11:53:26;-11298.94;;;-145.39;55.62
37078;BME280;22989;55.998;37.212;2023-02-28T11:58:42;-11298.94;;;-145.39;55.81
37078;BME280;22989;55.998;37.212;2023-02-28T12:12:04;-11298.94;;;-145.39;57.01
37078;BME280;22989;55.998;37.212;2023-02-28T12:22:58;-11298.94;;;-145.39;57.08
37078;BME280;22989;55.998;37.212;2023-02-28T12:28:02;-11298.94;;;-145.39;56.99
37078;BME280;22989;55.998;37.212;2023-02-28T12:30:31;-11298.94;;;-145.39;56.92
37078;BME280;22989;55.998;37.212;2023-02-28T12:33:04;-11298.94;;;-145.39;56.98
37078;BME280;22989;55.998;37.212;2023-02-28T12:36:01;-11298.94;;;-145.39;57.04
37078;BME280;22989;55.998;37.212;2023-02-28T12:38:34;-11298.94;;;-145.39;56.83
37078;BME280;22989;55.998;37.212;2023-02-28T12:41:26;-11298.94;;;-145.39;56.84
37078;BME280;22989;55.998;37.212;2023-02-28T12:43:57;-11298.94;;;-145.39;56.75
37078;BME280;22989;55.998;37.212;2023-02-28T12:46:48;-11298.94;;;-145.39;56.73
37078;BME280;22989;55.998;37.212;2023-02-28T12:49:19;-11298.94;;;-145.39;56.85
37078;BME280;22989;55.998;37.212;2023-02-28T12:51:47;-11298.94;;;-145.39;56.85
37078;BME280;22989;55.998;37.212;2023-02-28T12:54:24;-11298.94;;;-145.39;56.69
37078;BME280;22989;55.998;37.212;2023-02-28T13:00:03;-11298.94;;;-145.39;56.67
37078;BME280;22989;55.998;37.212;2023-02-28T13:10:50;-11298.94;;;-145.39;56.44
37078;BME280;22989;55.998;37.212;2023-02-28T13:13:22;-11298.94;;;-145.39;56.42
37078;BME280;22989;55.998;37.212;2023-02-28T13:16:18;-11298.94;;;-145.39;56.54
37078;BME280;22989;55.998;37.212;2023-02-28T13:18:45;-11298.94;;;-145.39;56.44
37078;BME280;22989;55.998;37.212;2023-02-28T13:21:29;-11298.94;;;-145.39;56.53
37078;BME280;22989;55.998;37.212;2023-02-28T13:23:58;-11298.94;;;-145.39;56.54
37078;BME280;22989;55.998;37.212;2023-02-28T13:42:48;-11298.94;;;-145.39;56.82
37078;BME280;22989;55.998;37.212;2023-02-28T13:45:24;-11298.94;;;-145.39;57.04
37078;BME280;22989;55.998;37.212;2023-02-28T13:48:01;-11298.94;;;-145.39;57.22
37078;BME280;22989;55.998;37.212;2023-02-28T13:50:37;-11298.94;;;-145.39;57.21
37078;BME280;22989;55.998;37.212;2023-02-28T14:09:16;-11298.94;;;-145.39;57.13
37078;BME280;22989;55.998;37.212;2023-02-28T14:11:45;-11298.94;;;-145.39;57.18
37078;BME280;22989;55.998;37.212;2023-02-28T14:17:07;-11298.94;;;-145.39;57.11
37078;BME280;22989;55.998;37.212;2023-02-28T14:19:39;-11298.94;;;-145.39;57.30
37078;BME280;22989;55.998;37.212;2023-02-28T14:27:48;-11298.94;;;-145.39;57.26
37078;BME280;22989;55.998;37.212;2023-02-28T14:30:56;-11298.94;;;-145.39;57.29
37078;BME280;22989;55.998;37.212;2023-02-28T14:33:35;-11298.94;;;-145.39;57.36
37078;BME280;22989;55.998;37.212;2023-02-28T14:36:26;-11298.94;;;-145.39;57.43
37078;BME280;22989;55.998;37.212;2023-02-28T14:39:13;-11298.94;;;-145.39;57.42
37078;BME280;22989;55.998;37.212;2023-02-28T14:41:42;-11298.94;;;-145.39;57.44
37078;BME280;22989;55.998;37.212;2023-02-28T14:44:27;-11298.94;;;-145.39;57.57
37078;BME280;22989;55.998;37.212;2023-02-28T14:46:55;-11298.94;;;-145.39;57.62
37078;BME280;22989;55.998;37.212;2023-02-28T14:49:28;-11298.94;;;-145.39;57.75
37078;BME280;22989;55.998;37.212;2023-02-28T14:54:39;-11298.94;;;-145.39;57.71
37078;BME280;22989;55.998;37.212;2023-02-28T14:57:05;-11298.94;;;-145.39;57.75
37078;BME280;22989;55.998;37.212;2023-02-28T14:59:33;-11298.94;;;-145.39;57.95
37078;BME280;22989;55.998;37.212;2023-02-28T15:02:19;-11298.94;;;-145.39;57.95